Parker, CO (80134)

1:16 AM MST on February 18, 2018 (GMT -0700)
Stroh Ranch (Northwest) | | Change Station
Active Advisory: Fire Weather Warning

Elev 5900 ft 39.49 °N, 104.77 °W | Updated 1 minute ago

Clear
Clear
39.1 °F
Feels Like 39 °F
N
0.3
Wind Variable Wind from North
Gusts 1.7 mph

Today
High -- | Low -- °F
--% Chance of Precip.
Yesterday
High -- | Low -- °F
Precip. -- in
Pressure 29.63 in
Visibility 10.0 miles
Clouds Few 22000 ft
Windchill 39 °F
Dew Point 10 °F
Humidity 29%
Rainfall 0.00 in
Snow Depth Not available.
6:47 AM 5:39 PM
Waxing Crescent, 6% visible
METAR KAPA 180753Z 21022G30KT 10SM FEW220 08/M13 A2970 RMK AO2 PK WND 22031/0742 SLP033 T00831133
Pressure 29.63 in
Visibility 10.0 miles
Clouds Few 22000 ft
Windchill 39 °F
Dew Point 10 °F
Humidity 29%
Rainfall 0.00 in
Snow Depth Not available.
6:47 AM 5:39 PM
Waxing Crescent, 6% visible
METAR KAPA 180753Z 21022G30KT 10SM FEW220 08/M13 A2970 RMK AO2 PK WND 22031/0742 SLP033 T00831133

Get Your Daily Forecast Email!

Thanks for signing up!

Be on the lookout for a verification email in your inbox.

You'll start receiving severe weather alerts in your inbox..

×

10-Day Weather Forecast

Almanac

Astronomy

Feb. 18, 2018 Rise Set
Actual Time
Civil Twilight
Nautical Twilight
Astronomical Twilight
Moon
Length of Visible Light
Length of Day
Tomorrow will be .
, % of the Moon is Illuminated

Today's Extremes

State Highs State Lows

Community

WunderPhotos

Category 6

Welcome to Category 6. This is the collective home for Weather Underground's featured writeups by Dr. Jeff Masters (right), Bob Henson (left), Chris Burt, and other regular contributors.

Nearby

Air Quality

  Air Quality AQ Index Pollutant
Not available.

Snow Depth

Station Depth Elevation

Earthquake Activity

City Distance Mag. Time & Date
Minimum magnitude displayed is 2.5.

Coastal Water Temperatures

Place Temperature

Stations

Nearby Weather Stations

Station Location Temp. Windchill Dew Point Humidity Wind Precip. Elev Updated Type
                   

Watches & Warnings

Fire Weather Warning
Issued: 10:16 PM MST Feb. 17, 2018 – National Weather Service

... Red flag warning remains in effect from 11 am to 5 PM MST
Sunday for wind and low relative humidity for eastern Elbert
County below 600o feet and Lincoln County...

* affected area... fire weather zones 246 and 247.

* Timing... gusty winds will increase by late Sunday morning as
humidities drop through the afternoon. Conditions will improve
by late Sunday afternoon.

* Winds... southwest 15 to 20 mph with gusts up to 35 mph.

* Relative humidity... as low as 12 percent.

* Impacts... gusty winds and low humidities will be favorable for
rapid fire growth.

Precautionary/preparedness actions...

A red flag warning means that critical fire weather conditions
are either occurring now... .or will shortly. A combination of
strong winds... low relative humidity... and warm temperatures can
contribute to extreme fire behavior.



Gimmestad